sensor_id;sensor_type;location;lat;lon;timestamp;pressure;altitude;pressure_sealevel;temperature;humidity
37170;BME280;23062;13.952;100.608;2022-11-20T00:02:17;1008.91;;;28.82;67.86
37170;BME280;23062;13.952;100.608;2022-11-20T00:06:42;1008.95;;;28.83;67.71
37170;BME280;23062;13.952;100.608;2022-11-20T00:11:18;1008.96;;;28.92;67.67
37170;BME280;23062;13.952;100.608;2022-11-20T00:15:36;1009.06;;;29.13;66.94
37170;BME280;23062;13.952;100.608;2022-11-20T00:20:01;1009.19;;;29.17;66.67
37170;BME280;23062;13.952;100.608;2022-11-20T00:24:27;1009.35;;;29.21;66.40
37170;BME280;23062;13.952;100.608;2022-11-20T00:28:54;1009.42;;;29.25;66.22
37170;BME280;23062;13.952;100.608;2022-11-20T00:33:19;1009.46;;;29.26;66.24
37170;BME280;23062;13.952;100.608;2022-11-20T00:37:45;1009.62;;;29.30;66.01
37170;BME280;23062;13.952;100.608;2022-11-20T00:42:10;1009.76;;;29.33;65.87
37170;BME280;23062;13.952;100.608;2022-11-20T00:46:36;1009.80;;;29.37;65.66
37170;BME280;23062;13.952;100.608;2022-11-20T00:51:01;1009.84;;;29.39;65.53
37170;BME280;23062;13.952;100.608;2022-11-20T00:55:26;1009.89;;;29.43;65.35
37170;BME280;23062;13.952;100.608;2022-11-20T00:59:52;1010.02;;;29.48;64.40
37170;BME280;23062;13.952;100.608;2022-11-20T01:04:17;1010.14;;;29.51;63.32
37170;BME280;23062;13.952;100.608;2022-11-20T01:08:43;1010.19;;;29.50;62.47
37170;BME280;23062;13.952;100.608;2022-11-20T01:13:08;1010.24;;;29.52;62.41
37170;BME280;23062;13.952;100.608;2022-11-20T01:17:53;1010.26;;;29.53;62.13
37170;BME280;23062;13.952;100.608;2022-11-20T01:22:18;1010.29;;;29.54;62.00
37170;BME280;23062;13.952;100.608;2022-11-20T01:26:45;1010.36;;;29.56;61.59
37170;BME280;23062;13.952;100.608;2022-11-20T01:31:16;1010.45;;;29.55;61.30
37170;BME280;23062;13.952;100.608;2022-11-20T01:35:41;1010.39;;;29.59;61.30
37170;BME280;23062;13.952;100.608;2022-11-20T01:40:07;1010.36;;;29.61;61.44
37170;BME280;23062;13.952;100.608;2022-11-20T01:44:51;1010.39;;;29.65;61.42
37170;BME280;23062;13.952;100.608;2022-11-20T01:49:19;1010.31;;;29.64;60.90
37170;BME280;23062;13.952;100.608;2022-11-20T01:53:46;1010.34;;;29.69;60.81
37170;BME280;23062;13.952;100.608;2022-11-20T01:58:13;1010.36;;;29.74;61.08
37170;BME280;23062;13.952;100.608;2022-11-20T02:02:41;1010.35;;;29.78;60.99
37170;BME280;23062;13.952;100.608;2022-11-20T02:07:06;1010.43;;;29.81;60.89
37170;BME280;23062;13.952;100.608;2022-11-20T02:11:32;1010.50;;;29.85;60.48
37170;BME280;23062;13.952;100.608;2022-11-20T02:15:57;1010.55;;;29.90;60.22
37170;BME280;23062;13.952;100.608;2022-11-20T02:20:23;1010.54;;;29.94;60.00
37170;BME280;23062;13.952;100.608;2022-11-20T02:24:48;1010.58;;;29.97;60.24
37170;BME280;23062;13.952;100.608;2022-11-20T02:29:17;1010.56;;;29.99;59.62
37170;BME280;23062;13.952;100.608;2022-11-20T02:33:44;1010.57;;;29.99;59.77
37170;BME280;23062;13.952;100.608;2022-11-20T02:38:10;1010.65;;;30.01;59.89
37170;BME280;23062;13.952;100.608;2022-11-20T02:42:36;1010.68;;;30.02;59.96
37170;BME280;23062;13.952;100.608;2022-11-20T02:47:01;1010.65;;;30.00;59.48
37170;BME280;23062;13.952;100.608;2022-11-20T02:51:27;1010.63;;;29.99;59.43
37170;BME280;23062;13.952;100.608;2022-11-20T02:55:54;1010.68;;;30.04;59.78
37170;BME280;23062;13.952;100.608;2022-11-20T03:00:20;1010.67;;;30.06;59.69
37170;BME280;23062;13.952;100.608;2022-11-20T03:04:45;1010.73;;;30.07;59.46
37170;BME280;23062;13.952;100.608;2022-11-20T03:09:10;1010.74;;;30.08;58.99
37170;BME280;23062;13.952;100.608;2022-11-20T03:13:36;1010.74;;;30.07;59.39
37170;BME280;23062;13.952;100.608;2022-11-20T03:18:01;1010.76;;;30.08;59.41
37170;BME280;23062;13.952;100.608;2022-11-20T03:22:31;1010.73;;;30.10;59.25
37170;BME280;23062;13.952;100.608;2022-11-20T03:26:56;1010.69;;;30.12;59.57
37170;BME280;23062;13.952;100.608;2022-11-20T03:31:28;1010.68;;;30.24;59.58
37170;BME280;23062;13.952;100.608;2022-11-20T03:35:53;1010.66;;;30.26;59.73
37170;BME280;23062;13.952;100.608;2022-11-20T03:40:19;1010.62;;;30.28;59.77
37170;BME280;23062;13.952;100.608;2022-11-20T03:44:44;1010.53;;;30.27;59.89
37170;BME280;23062;13.952;100.608;2022-11-20T03:49:09;1010.51;;;30.28;59.88
37170;BME280;23062;13.952;100.608;2022-11-20T03:53:35;1010.43;;;30.28;59.92
37170;BME280;23062;13.952;100.608;2022-11-20T03:58:00;1010.31;;;30.29;59.92
37170;BME280;23062;13.952;100.608;2022-11-20T04:02:25;1010.18;;;30.29;60.02
37170;BME280;23062;13.952;100.608;2022-11-20T04:06:50;1010.11;;;30.31;59.96
37170;BME280;23062;13.952;100.608;2022-11-20T04:11:23;1009.96;;;30.31;60.07
37170;BME280;23062;13.952;100.608;2022-11-20T04:15:49;1009.95;;;30.33;60.12
37170;BME280;23062;13.952;100.608;2022-11-20T04:20:14;1009.88;;;30.32;60.15
37170;BME280;23062;13.952;100.608;2022-11-20T04:24:39;1009.76;;;30.33;60.21
37170;BME280;23062;13.952;100.608;2022-11-20T04:29:04;1009.75;;;30.34;60.15
37170;BME280;23062;13.952;100.608;2022-11-20T04:33:30;1009.66;;;30.35;60.03
37170;BME280;23062;13.952;100.608;2022-11-20T04:37:55;1009.65;;;30.35;60.03
37170;BME280;23062;13.952;100.608;2022-11-20T04:42:20;1009.59;;;30.36;59.99
37170;BME280;23062;13.952;100.608;2022-11-20T04:46:55;1009.45;;;30.37;59.94
37170;BME280;23062;13.952;100.608;2022-11-20T04:51:20;1009.36;;;30.38;59.89
37170;BME280;23062;13.952;100.608;2022-11-20T04:55:45;1009.31;;;30.37;59.85
37170;BME280;23062;13.952;100.608;2022-11-20T05:00:11;1009.23;;;30.37;59.73
37170;BME280;23062;13.952;100.608;2022-11-20T05:04:36;1009.06;;;30.38;59.69
37170;BME280;23062;13.952;100.608;2022-11-20T05:09:02;1009.05;;;30.40;59.61
37170;BME280;23062;13.952;100.608;2022-11-20T05:13:27;1009.03;;;30.41;59.53
37170;BME280;23062;13.952;100.608;2022-11-20T05:17:53;1008.96;;;30.42;59.26
37170;BME280;23062;13.952;100.608;2022-11-20T05:22:18;1008.89;;;30.45;58.75
37170;BME280;23062;13.952;100.608;2022-11-20T05:26:43;1008.77;;;30.46;58.35
37170;BME280;23062;13.952;100.608;2022-11-20T05:31:13;1008.75;;;30.52;58.10
37170;BME280;23062;13.952;100.608;2022-11-20T05:35:37;1008.81;;;30.56;57.71
37170;BME280;23062;13.952;100.608;2022-11-20T05:40:02;1008.72;;;30.56;57.77
37170;BME280;23062;13.952;100.608;2022-11-20T05:44:27;1008.68;;;30.59;57.36
37170;BME280;23062;13.952;100.608;2022-11-20T05:48:52;1008.56;;;30.63;57.61
37170;BME280;23062;13.952;100.608;2022-11-20T05:53:18;1008.47;;;30.65;58.06
37170;BME280;23062;13.952;100.608;2022-11-20T05:57:43;1008.44;;;30.68;57.49
37170;BME280;23062;13.952;100.608;2022-11-20T06:02:08;1008.41;;;30.64;57.66
37170;BME280;23062;13.952;100.608;2022-11-20T06:06:33;1008.31;;;30.67;56.37
37170;BME280;23062;13.952;100.608;2022-11-20T06:11:02;1008.29;;;30.75;55.57
37170;BME280;23062;13.952;100.608;2022-11-20T06:15:26;1008.24;;;30.79;55.05
37170;BME280;23062;13.952;100.608;2022-11-20T06:19:51;1008.16;;;30.74;55.64
37170;BME280;23062;13.952;100.608;2022-11-20T06:24:17;1008.10;;;30.75;55.30
37170;BME280;23062;13.952;100.608;2022-11-20T06:28:43;1008.00;;;30.75;55.36
37170;BME280;23062;13.952;100.608;2022-11-20T06:33:09;1007.97;;;30.77;55.35
37170;BME280;23062;13.952;100.608;2022-11-20T06:37:35;1007.74;;;30.78;55.07
37170;BME280;23062;13.952;100.608;2022-11-20T06:42:00;1007.69;;;30.80;55.68
37170;BME280;23062;13.952;100.608;2022-11-20T06:46:26;1007.60;;;30.89;55.36
37170;BME280;23062;13.952;100.608;2022-11-20T06:50:51;1007.55;;;30.93;55.16
37170;BME280;23062;13.952;100.608;2022-11-20T06:55:17;1007.50;;;30.93;54.99
37170;BME280;23062;13.952;100.608;2022-11-20T06:59:43;1007.38;;;30.90;55.42
37170;BME280;23062;13.952;100.608;2022-11-20T07:04:08;1007.24;;;30.88;55.77
37170;BME280;23062;13.952;100.608;2022-11-20T07:08:34;1007.12;;;30.95;55.39
37170;BME280;23062;13.952;100.608;2022-11-20T07:12:59;1006.98;;;30.96;55.40
37170;BME280;23062;13.952;100.608;2022-11-20T07:17:24;1006.92;;;30.91;55.50
37170;BME280;23062;13.952;100.608;2022-11-20T07:21:49;1006.76;;;30.95;55.11
37170;BME280;23062;13.952;100.608;2022-11-20T07:26:15;1006.70;;;31.00;54.78
37170;BME280;23062;13.952;100.608;2022-11-20T07:30:40;1006.55;;;31.01;55.11
37170;BME280;23062;13.952;100.608;2022-11-20T07:35:07;1006.44;;;31.04;55.15
37170;BME280;23062;13.952;100.608;2022-11-20T07:39:32;1006.38;;;31.04;55.15
37170;BME280;23062;13.952;100.608;2022-11-20T07:43:57;1006.35;;;31.04;55.24
37170;BME280;23062;13.952;100.608;2022-11-20T07:48:22;1006.33;;;31.03;55.05
37170;BME280;23062;13.952;100.608;2022-11-20T07:52:47;1006.33;;;31.04;54.80
37170;BME280;23062;13.952;100.608;2022-11-20T07:57:13;1006.27;;;31.02;54.83
37170;BME280;23062;13.952;100.608;2022-11-20T08:01:38;1006.23;;;31.04;54.83
37170;BME280;23062;13.952;100.608;2022-11-20T08:06:04;1006.23;;;31.01;55.01
37170;BME280;23062;13.952;100.608;2022-11-20T08:10:29;1006.18;;;31.06;54.55
37170;BME280;23062;13.952;100.608;2022-11-20T08:14:54;1006.24;;;31.06;54.51
37170;BME280;23062;13.952;100.608;2022-11-20T08:19:21;1006.22;;;31.04;54.76
37170;BME280;23062;13.952;100.608;2022-11-20T08:23:46;1006.22;;;31.02;55.13
37170;BME280;23062;13.952;100.608;2022-11-20T08:28:12;1006.15;;;30.99;55.41
37170;BME280;23062;13.952;100.608;2022-11-20T08:32:37;1006.19;;;30.93;56.01
37170;BME280;23062;13.952;100.608;2022-11-20T08:37:02;1006.25;;;30.90;56.31
37170;BME280;23062;13.952;100.608;2022-11-20T08:41:28;1006.24;;;30.87;56.49
37170;BME280;23062;13.952;100.608;2022-11-20T08:45:56;1006.24;;;30.86;56.50
37170;BME280;23062;13.952;100.608;2022-11-20T08:50:22;1006.19;;;30.82;56.56
37170;BME280;23062;13.952;100.608;2022-11-20T08:54:47;1006.20;;;30.83;56.91
37170;BME280;23062;13.952;100.608;2022-11-20T08:59:12;1006.20;;;30.85;56.99
37170;BME280;23062;13.952;100.608;2022-11-20T09:03:37;1006.14;;;30.87;56.61
37170;BME280;23062;13.952;100.608;2022-11-20T09:08:03;1006.17;;;30.87;56.44
37170;BME280;23062;13.952;100.608;2022-11-20T09:12:28;1006.14;;;30.88;56.06
37170;BME280;23062;13.952;100.608;2022-11-20T09:16:53;1006.12;;;30.84;56.18
37170;BME280;23062;13.952;100.608;2022-11-20T09:21:18;1006.15;;;30.86;56.12
37170;BME280;23062;13.952;100.608;2022-11-20T09:25:44;1006.17;;;30.88;56.35
37170;BME280;23062;13.952;100.608;2022-11-20T09:30:10;1006.23;;;30.89;56.48
37170;BME280;23062;13.952;100.608;2022-11-20T09:34:35;1006.20;;;30.90;56.55
37170;BME280;23062;13.952;100.608;2022-11-20T09:39:00;1006.25;;;30.91;56.69
37170;BME280;23062;13.952;100.608;2022-11-20T09:57:35;1006.49;;;30.99;56.02
37170;BME280;23062;13.952;100.608;2022-11-20T10:01:59;1006.59;;;31.00;56.04
37170;BME280;23062;13.952;100.608;2022-11-20T10:06:43;1006.64;;;30.97;55.59
37170;BME280;23062;13.952;100.608;2022-11-20T10:11:14;1006.69;;;30.96;55.17
37170;BME280;23062;13.952;100.608;2022-11-20T10:20:40;1006.85;;;30.86;55.05
37170;BME280;23062;13.952;100.608;2022-11-20T10:25:17;1006.89;;;30.82;55.02
37170;BME280;23062;13.952;100.608;2022-11-20T10:29:43;1006.91;;;30.83;55.35
37170;BME280;23062;13.952;100.608;2022-11-20T10:34:28;1006.93;;;30.80;55.24
37170;BME280;23062;13.952;100.608;2022-11-20T10:39:01;1006.92;;;30.78;55.36
37170;BME280;23062;13.952;100.608;2022-11-20T10:43:36;1006.93;;;30.77;55.45
37170;BME280;23062;13.952;100.608;2022-11-20T10:52:56;1006.99;;;30.76;55.97
37170;BME280;23062;13.952;100.608;2022-11-20T10:57:46;1007.02;;;30.80;55.96
37170;BME280;23062;13.952;100.608;2022-11-20T11:02:21;1007.16;;;30.80;56.02
37170;BME280;23062;13.952;100.608;2022-11-20T11:06:47;1007.17;;;30.78;56.06
37170;BME280;23062;13.952;100.608;2022-11-20T11:11:21;1007.20;;;30.78;56.18
37170;BME280;23062;13.952;100.608;2022-11-20T11:15:46;1007.25;;;30.77;56.29
37170;BME280;23062;13.952;100.608;2022-11-20T11:20:17;1007.33;;;30.77;56.35
37170;BME280;23062;13.952;100.608;2022-11-20T11:24:51;1007.40;;;30.78;56.48
37170;BME280;23062;13.952;100.608;2022-11-20T11:29:15;1007.53;;;30.76;56.77
37170;BME280;23062;13.952;100.608;2022-11-20T11:33:40;1007.63;;;30.74;56.66
37170;BME280;23062;13.952;100.608;2022-11-20T11:38:10;1007.75;;;30.77;56.47
37170;BME280;23062;13.952;100.608;2022-11-20T11:42:34;1007.80;;;30.77;56.39
37170;BME280;23062;13.952;100.608;2022-11-20T11:47:01;1007.87;;;30.78;56.49
37170;BME280;23062;13.952;100.608;2022-11-20T11:56:20;1008.01;;;30.78;56.70
37170;BME280;23062;13.952;100.608;2022-11-20T12:01:03;1008.08;;;30.73;56.78
37170;BME280;23062;13.952;100.608;2022-11-20T12:05:46;1008.18;;;30.72;57.09
37170;BME280;23062;13.952;100.608;2022-11-20T12:10:15;1008.29;;;30.73;57.26
37170;BME280;23062;13.952;100.608;2022-11-20T12:14:41;1008.34;;;30.75;57.41
37170;BME280;23062;13.952;100.608;2022-11-20T12:19:14;1008.46;;;30.78;57.40
37170;BME280;23062;13.952;100.608;2022-11-20T12:24:00;1008.51;;;30.78;57.72
37170;BME280;23062;13.952;100.608;2022-11-20T12:28:38;1008.59;;;30.80;57.84
37170;BME280;23062;13.952;100.608;2022-11-20T12:33:27;1008.65;;;30.84;58.03
37170;BME280;23062;13.952;100.608;2022-11-20T12:42:46;1008.78;;;30.88;58.58
37170;BME280;23062;13.952;100.608;2022-11-20T12:57:03;1008.94;;;30.93;59.50
37170;BME280;23062;13.952;100.608;2022-11-20T13:01:34;1009.02;;;31.01;59.34
37170;BME280;23062;13.952;100.608;2022-11-20T13:06:18;1009.15;;;31.13;58.84
37170;BME280;23062;13.952;100.608;2022-11-20T13:11:03;1009.19;;;31.18;58.86
37170;BME280;23062;13.952;100.608;2022-11-20T13:15:54;1009.14;;;31.17;58.59
37170;BME280;23062;13.952;100.608;2022-11-20T13:20:17;1009.09;;;31.16;58.26
37170;BME280;23062;13.952;100.608;2022-11-20T13:24:49;1009.07;;;31.13;58.60
37170;BME280;23062;13.952;100.608;2022-11-20T13:29:21;1009.20;;;31.12;58.84
37170;BME280;23062;13.952;100.608;2022-11-20T13:33:39;1009.23;;;31.11;58.69
37170;BME280;23062;13.952;100.608;2022-11-20T13:42:43;1009.37;;;31.08;59.07
37170;BME280;23062;13.952;100.608;2022-11-20T13:47:17;1009.45;;;31.08;59.25
37170;BME280;23062;13.952;100.608;2022-11-20T13:51:51;1009.50;;;31.08;59.43
37170;BME280;23062;13.952;100.608;2022-11-20T13:56:34;1009.60;;;31.07;59.23
37170;BME280;23062;13.952;100.608;2022-11-20T14:01:00;1009.58;;;31.06;59.36
37170;BME280;23062;13.952;100.608;2022-11-20T14:05:26;1009.57;;;31.03;59.17
37170;BME280;23062;13.952;100.608;2022-11-20T14:09:55;1009.63;;;31.02;59.21
37170;BME280;23062;13.952;100.608;2022-11-20T14:14:22;1009.61;;;31.02;59.43
37170;BME280;23062;13.952;100.608;2022-11-20T14:18:48;1009.60;;;31.00;59.54
37170;BME280;23062;13.952;100.608;2022-11-20T14:27:44;1009.61;;;30.99;59.50
37170;BME280;23062;13.952;100.608;2022-11-20T14:32:10;1009.63;;;30.98;59.58
37170;BME280;23062;13.952;100.608;2022-11-20T14:36:36;1009.68;;;30.98;59.45
37170;BME280;23062;13.952;100.608;2022-11-20T14:41:14;1009.64;;;30.97;59.29
37170;BME280;23062;13.952;100.608;2022-11-20T14:45:37;1009.64;;;30.97;59.37
37170;BME280;23062;13.952;100.608;2022-11-20T14:50:07;1009.64;;;30.97;59.52
37170;BME280;23062;13.952;100.608;2022-11-20T14:54:35;1009.65;;;30.96;59.47
37170;BME280;23062;13.952;100.608;2022-11-20T14:59:04;1009.63;;;30.96;59.56
37170;BME280;23062;13.952;100.608;2022-11-20T15:03:39;1009.62;;;30.95;59.58
37170;BME280;23062;13.952;100.608;2022-11-20T15:08:08;1009.51;;;30.95;59.62
37170;BME280;23062;13.952;100.608;2022-11-20T15:12:37;1009.52;;;30.94;59.50
37170;BME280;23062;13.952;100.608;2022-11-20T15:17:07;1009.51;;;30.93;59.52
37170;BME280;23062;13.952;100.608;2022-11-20T15:21:32;1009.48;;;30.93;59.40
37170;BME280;23062;13.952;100.608;2022-11-20T15:25:59;1009.42;;;30.91;59.30
37170;BME280;23062;13.952;100.608;2022-11-20T15:30:25;1009.41;;;30.92;59.58
37170;BME280;23062;13.952;100.608;2022-11-20T15:34:50;1009.37;;;30.91;59.54
37170;BME280;23062;13.952;100.608;2022-11-20T15:39:15;1009.34;;;30.90;59.37
37170;BME280;23062;13.952;100.608;2022-11-20T15:43:41;1009.34;;;30.91;59.54
37170;BME280;23062;13.952;100.608;2022-11-20T15:48:15;1009.29;;;30.89;59.23
37170;BME280;23062;13.952;100.608;2022-11-20T15:52:41;1009.31;;;30.90;59.37
37170;BME280;23062;13.952;100.608;2022-11-20T15:57:08;1009.23;;;30.89;59.38
37170;BME280;23062;13.952;100.608;2022-11-20T16:01:34;1009.24;;;30.88;58.93
37170;BME280;23062;13.952;100.608;2022-11-20T16:06:00;1009.20;;;30.87;59.20
37170;BME280;23062;13.952;100.608;2022-11-20T16:10:25;1009.16;;;30.87;59.25
37170;BME280;23062;13.952;100.608;2022-11-20T16:14:50;1009.23;;;30.86;59.14
37170;BME280;23062;13.952;100.608;2022-11-20T16:19:33;1009.22;;;30.88;59.22
37170;BME280;23062;13.952;100.608;2022-11-20T16:24:04;1009.14;;;30.86;59.13
37170;BME280;23062;13.952;100.608;2022-11-20T16:28:30;1009.12;;;30.85;58.93
37170;BME280;23062;13.952;100.608;2022-11-20T16:32:55;1009.11;;;30.85;58.64
37170;BME280;23062;13.952;100.608;2022-11-20T16:37:21;1009.04;;;30.83;58.69
37170;BME280;23062;13.952;100.608;2022-11-20T16:41:46;1009.05;;;30.83;58.76
37170;BME280;23062;13.952;100.608;2022-11-20T16:46:16;1009.02;;;30.83;58.66
37170;BME280;23062;13.952;100.608;2022-11-20T16:50:50;1008.99;;;30.83;59.06
37170;BME280;23062;13.952;100.608;2022-11-20T16:55:16;1008.88;;;30.82;58.70
37170;BME280;23062;13.952;100.608;2022-11-20T16:59:41;1008.88;;;30.82;59.03
37170;BME280;23062;13.952;100.608;2022-11-20T17:04:08;1008.82;;;30.81;58.95
37170;BME280;23062;13.952;100.608;2022-11-20T17:08:33;1008.83;;;30.79;59.15
37170;BME280;23062;13.952;100.608;2022-11-20T17:13:02;1008.84;;;30.79;59.18
37170;BME280;23062;13.952;100.608;2022-11-20T17:17:27;1008.79;;;30.78;59.30
37170;BME280;23062;13.952;100.608;2022-11-20T17:21:53;1008.76;;;30.77;59.31
37170;BME280;23062;13.952;100.608;2022-11-20T17:26:20;1008.67;;;30.77;59.26
37170;BME280;23062;13.952;100.608;2022-11-20T17:30:46;1008.68;;;30.75;59.20
37170;BME280;23062;13.952;100.608;2022-11-20T17:35:14;1008.63;;;30.74;59.41
37170;BME280;23062;13.952;100.608;2022-11-20T17:39:40;1008.61;;;30.75;59.35
37170;BME280;23062;13.952;100.608;2022-11-20T17:44:05;1008.60;;;30.73;59.38
37170;BME280;23062;13.952;100.608;2022-11-20T17:48:32;1008.50;;;30.73;59.49
37170;BME280;23062;13.952;100.608;2022-11-20T17:52:58;1008.50;;;30.73;59.50
37170;BME280;23062;13.952;100.608;2022-11-20T17:57:24;1008.49;;;30.72;59.57
37170;BME280;23062;13.952;100.608;2022-11-20T18:02:08;1008.47;;;30.72;59.64
37170;BME280;23062;13.952;100.608;2022-11-20T18:06:33;1008.46;;;30.71;59.73
37170;BME280;23062;13.952;100.608;2022-11-20T18:10:58;1008.50;;;30.71;59.72
37170;BME280;23062;13.952;100.608;2022-11-20T18:15:24;1008.47;;;30.70;59.79
37170;BME280;23062;13.952;100.608;2022-11-20T18:19:54;1008.43;;;30.70;59.78
37170;BME280;23062;13.952;100.608;2022-11-20T18:24:21;1008.30;;;30.69;59.80
37170;BME280;23062;13.952;100.608;2022-11-20T18:28:47;1008.29;;;30.68;59.77
37170;BME280;23062;13.952;100.608;2022-11-20T18:33:13;1008.31;;;30.67;59.78
37170;BME280;23062;13.952;100.608;2022-11-20T18:37:39;1008.28;;;30.67;59.81
37170;BME280;23062;13.952;100.608;2022-11-20T18:42:05;1008.18;;;30.66;59.82
37170;BME280;23062;13.952;100.608;2022-11-20T18:46:48;1008.19;;;30.67;59.81
37170;BME280;23062;13.952;100.608;2022-11-20T18:51:14;1008.23;;;30.66;59.88
37170;BME280;23062;13.952;100.608;2022-11-20T18:55:40;1008.11;;;30.65;59.88
37170;BME280;23062;13.952;100.608;2022-11-20T19:00:06;1008.04;;;30.64;59.88
37170;BME280;23062;13.952;100.608;2022-11-20T19:04:33;1007.97;;;30.64;59.93
37170;BME280;23062;13.952;100.608;2022-11-20T19:08:58;1007.86;;;30.62;59.95
37170;BME280;23062;13.952;100.608;2022-11-20T19:13:25;1007.84;;;30.62;59.91
37170;BME280;23062;13.952;100.608;2022-11-20T19:17:52;1007.88;;;30.62;59.96
37170;BME280;23062;13.952;100.608;2022-11-20T19:22:18;1007.88;;;30.62;59.98
37170;BME280;23062;13.952;100.608;2022-11-20T19:26:44;1007.79;;;30.61;59.99
37170;BME280;23062;13.952;100.608;2022-11-20T19:31:17;1007.74;;;30.61;60.08
37170;BME280;23062;13.952;100.608;2022-11-20T19:35:37;1007.74;;;30.60;60.08
37170;BME280;23062;13.952;100.608;2022-11-20T19:40:03;1007.73;;;30.59;60.16
37170;BME280;23062;13.952;100.608;2022-11-20T19:44:30;1007.56;;;30.58;60.18
37170;BME280;23062;13.952;100.608;2022-11-20T19:48:56;1007.52;;;30.58;60.19
37170;BME280;23062;13.952;100.608;2022-11-20T19:53:25;1007.46;;;30.58;60.25
37170;BME280;23062;13.952;100.608;2022-11-20T19:57:50;1007.38;;;30.58;60.26
37170;BME280;23062;13.952;100.608;2022-11-20T20:02:19;1007.39;;;30.57;60.04
37170;BME280;23062;13.952;100.608;2022-11-20T20:06:44;1007.41;;;30.57;60.12
37170;BME280;23062;13.952;100.608;2022-11-20T20:11:19;1007.30;;;30.56;60.24
37170;BME280;23062;13.952;100.608;2022-11-20T20:15:45;1007.30;;;30.57;60.25
37170;BME280;23062;13.952;100.608;2022-11-20T20:20:11;1007.32;;;30.56;60.32
37170;BME280;23062;13.952;100.608;2022-11-20T20:24:36;1007.27;;;30.52;61.31
37170;BME280;23062;13.952;100.608;2022-11-20T20:29:02;1007.31;;;30.47;61.90
37170;BME280;23062;13.952;100.608;2022-11-20T20:33:27;1007.32;;;30.39;62.63
37170;BME280;23062;13.952;100.608;2022-11-20T20:37:53;1007.31;;;30.28;63.02
37170;BME280;23062;13.952;100.608;2022-11-20T20:42:18;1007.30;;;30.24;63.03
37170;BME280;23062;13.952;100.608;2022-11-20T20:46:43;1007.23;;;30.19;62.91
37170;BME280;23062;13.952;100.608;2022-11-20T20:51:08;1007.21;;;30.15;63.14
37170;BME280;23062;13.952;100.608;2022-11-20T20:55:35;1007.23;;;30.11;63.17
37170;BME280;23062;13.952;100.608;2022-11-20T21:00:02;1007.15;;;30.10;63.31
37170;BME280;23062;13.952;100.608;2022-11-20T21:04:28;1007.13;;;30.07;63.76
37170;BME280;23062;13.952;100.608;2022-11-20T21:08:55;1007.08;;;30.10;64.20
37170;BME280;23062;13.952;100.608;2022-11-20T21:13:22;1007.14;;;30.08;64.51
37170;BME280;23062;13.952;100.608;2022-11-20T21:17:47;1007.05;;;30.07;64.63
37170;BME280;23062;13.952;100.608;2022-11-20T21:22:13;1007.05;;;30.12;64.32
37170;BME280;23062;13.952;100.608;2022-11-20T21:26:39;1007.02;;;30.15;64.22
37170;BME280;23062;13.952;100.608;2022-11-20T21:31:12;1006.98;;;30.16;64.28
37170;BME280;23062;13.952;100.608;2022-11-20T21:35:37;1006.93;;;30.16;64.30
37170;BME280;23062;13.952;100.608;2022-11-20T21:40:04;1006.93;;;29.84;65.52
37170;BME280;23062;13.952;100.608;2022-11-20T21:44:30;1006.95;;;29.72;65.98
37170;BME280;23062;13.952;100.608;2022-11-20T21:48:55;1006.99;;;29.73;66.70
37170;BME280;23062;13.952;100.608;2022-11-20T21:53:21;1006.95;;;29.66;67.00
37170;BME280;23062;13.952;100.608;2022-11-20T21:57:47;1006.96;;;29.65;66.45
37170;BME280;23062;13.952;100.608;2022-11-20T22:02:14;1007.00;;;29.61;65.48
37170;BME280;23062;13.952;100.608;2022-11-20T22:06:39;1006.97;;;29.55;65.01
37170;BME280;23062;13.952;100.608;2022-11-20T22:11:10;1007.00;;;29.64;64.65
37170;BME280;23062;13.952;100.608;2022-11-20T22:15:35;1007.00;;;29.70;64.75
37170;BME280;23062;13.952;100.608;2022-11-20T22:20:01;1007.02;;;29.80;64.73
37170;BME280;23062;13.952;100.608;2022-11-20T22:24:26;1007.00;;;29.79;64.59
37170;BME280;23062;13.952;100.608;2022-11-20T22:28:52;1007.04;;;29.83;64.42
37170;BME280;23062;13.952;100.608;2022-11-20T22:33:19;1007.06;;;29.86;64.40
37170;BME280;23062;13.952;100.608;2022-11-20T22:37:47;1007.09;;;29.88;64.55
37170;BME280;23062;13.952;100.608;2022-11-20T22:42:11;1007.09;;;29.86;65.13
37170;BME280;23062;13.952;100.608;2022-11-20T22:46:37;1007.15;;;29.88;65.59
37170;BME280;23062;13.952;100.608;2022-11-20T22:51:06;1007.14;;;29.87;65.74
37170;BME280;23062;13.952;100.608;2022-11-20T22:55:32;1007.11;;;29.84;66.08
37170;BME280;23062;13.952;100.608;2022-11-20T22:59:58;1007.11;;;29.87;65.87
37170;BME280;23062;13.952;100.608;2022-11-20T23:04:23;1007.13;;;29.90;65.61
37170;BME280;23062;13.952;100.608;2022-11-20T23:08:49;1007.18;;;29.92;65.36
37170;BME280;23062;13.952;100.608;2022-11-20T23:13:14;1007.23;;;29.91;65.35
37170;BME280;23062;13.952;100.608;2022-11-20T23:17:40;1007.21;;;29.91;65.26
37170;BME280;23062;13.952;100.608;2022-11-20T23:22:05;1007.20;;;29.90;65.31
37170;BME280;23062;13.952;100.608;2022-11-20T23:26:34;1007.25;;;29.87;65.32
37170;BME280;23062;13.952;100.608;2022-11-20T23:31:00;1007.30;;;29.88;65.46
37170;BME280;23062;13.952;100.608;2022-11-20T23:35:26;1007.37;;;29.86;65.52
37170;BME280;23062;13.952;100.608;2022-11-20T23:39:51;1007.41;;;29.88;65.40
37170;BME280;23062;13.952;100.608;2022-11-20T23:44:16;1007.56;;;29.84;65.53
37170;BME280;23062;13.952;100.608;2022-11-20T23:48:42;1007.52;;;29.85;65.54
37170;BME280;23062;13.952;100.608;2022-11-20T23:53:08;1007.56;;;29.86;65.57
37170;BME280;23062;13.952;100.608;2022-11-20T23:57:33;1007.62;;;29.87;65.43
